Time;durP1;ratioP1;P1;durP2;ratioP2;P2;SDS_P1;SDS_P2;PMS_P1;PMS_P2;Temp;Humidity;BMP_temperature;BMP_pressure;BME280_temperature;BME280_humidity;BME280_pressure;Samples;Min_cycle;Max_cycle;Signal;HPM_P1;HPM_P2
2021/01/15 00:01:25;;;;;;;23.00;5.27;;;26.30;83.30;;;;;;4992683;28;20548;-67
2021/01/15 00:03:52;;;;;;;17.97;4.90;;;26.10;83.30;;;;;;4993549;28;20316;-69
2021/01/15 00:06:24;;;;;;;17.10;4.97;;;26.20;82.50;;;;;;4991097;28;20201;-68
2021/01/15 00:08:53;;;;;;;15.90;4.27;;;26.30;82.70;;;;;;4987182;28;20648;-68
2021/01/15 00:11:30;;;;;;;16.33;4.50;;;26.30;82.40;;;;;;4991584;28;20656;-68
2021/01/15 00:14:00;;;;;;;21.63;10.07;;;26.20;83.40;;;;;;4990058;28;20190;-70
2021/01/15 00:16:32;;;;;;;21.13;8.20;;;26.20;83.30;;;;;;4990395;28;20175;-71
2021/01/15 00:19:02;;;;;;;20.67;5.00;;;26.30;82.70;;;;;;4978403;28;20209;-68
2021/01/15 00:21:34;;;;;;;17.83;5.13;;;26.30;82.90;;;;;;4991462;28;20194;-68
2021/01/15 00:24:04;;;;;;;18.70;5.20;;;26.80;81.80;;;;;;4991267;28;20170;-72
2021/01/15 00:26:32;;;;;;;21.10;5.87;;;27.10;80.70;;;;;;4987826;28;20185;-69
2021/01/15 00:29:00;;;;;;;17.60;4.83;;;27.40;79.70;;;;;;4987574;28;20186;-68
2021/01/15 00:31:32;;;;;;;17.90;5.63;;;27.80;78.50;;;;;;4992855;28;20632;-68
2021/01/15 00:34:00;;;;;;;12.07;5.33;;;27.70;77.20;;;;;;4991022;28;20201;-69
2021/01/15 00:36:27;;;;;;;22.73;5.20;;;27.90;76.20;;;;;;4991859;28;20182;-69
2021/01/15 00:38:55;;;;;;;11.17;4.67;;;28.00;76.40;;;;;;4988249;28;20218;-68
2021/01/15 00:41:22;;;;;;;16.37;5.43;;;27.90;75.70;;;;;;4988389;28;20254;-72
2021/01/15 00:43:50;;;;;;;16.83;4.50;;;28.10;74.50;;;;;;4987743;28;20640;-68
2021/01/15 00:46:31;;;;;;;15.93;4.60;;;28.10;74.90;;;;;;4988862;28;20179;-68
2021/01/15 00:49:02;;;;;;;19.87;5.30;;;28.20;74.00;;;;;;4992003;28;20268;-69
2021/01/15 00:51:30;;;;;;;13.57;4.83;;;28.00;73.40;;;;;;4988182;28;20640;-68
2021/01/15 00:54:02;;;;;;;23.60;5.70;;;28.00;74.40;;;;;;4990429;28;20189;-69
2021/01/15 00:56:29;;;;;;;11.03;3.80;;;28.00;75.90;;;;;;4982998;28;20229;-69
2021/01/15 00:58:57;;;;;;;18.40;5.27;;;28.20;75.10;;;;;;4988979;28;20216;-69
2021/01/15 01:01:25;;;;;;;17.10;4.53;;;28.00;76.00;;;;;;4991025;28;20186;-72
2021/01/15 01:03:53;;;;;;;18.87;4.77;;;27.90;76.90;;;;;;4989153;28;20569;-72
2021/01/15 01:06:22;;;;;;;13.53;4.57;;;28.00;76.00;;;;;;4981344;28;20287;-73
2021/01/15 01:08:50;;;;;;;16.03;4.60;;;28.20;76.00;;;;;;4985970;28;20660;-73
2021/01/15 01:11:20;;;;;;;16.67;4.87;;;28.50;74.50;;;;;;4991169;28;20516;-72
2021/01/15 01:13:52;;;;;;;18.40;4.83;;;28.60;74.10;;;;;;4989346;28;20226;-72
2021/01/15 01:16:21;;;;;;;17.27;4.87;;;28.50;75.40;;;;;;4989170;28;20183;-71
2021/01/15 01:18:49;;;;;;;14.23;4.23;;;28.60;76.20;;;;;;4995661;28;20235;-71
2021/01/15 01:21:17;;;;;;;20.87;4.90;;;28.50;76.20;;;;;;4991853;28;20184;-69
2021/01/15 01:23:44;;;;;;;24.00;5.10;;;28.00;79.20;;;;;;4993329;28;20298;-71
2021/01/15 01:26:12;;;;;;;14.97;4.03;;;28.20;79.00;;;;;;4988561;28;20178;-69
2021/01/15 01:28:42;;;;;;;19.90;4.70;;;28.10;79.40;;;;;;4987304;28;20512;-70
2021/01/15 01:31:14;;;;;;;18.43;5.07;;;28.00;80.30;;;;;;4990841;28;20551;-70
2021/01/15 01:33:42;;;;;;;22.20;4.37;;;28.30;80.70;;;;;;4990266;28;20608;-71
2021/01/15 01:36:10;;;;;;;19.07;4.73;;;28.20;80.70;;;;;;4988166;28;20186;-69
2021/01/15 01:38:39;;;;;;;18.73;4.47;;;28.40;80.00;;;;;;4989470;28;20249;-70
2021/01/15 01:41:06;;;;;;;20.87;4.40;;;28.70;79.60;;;;;;4988437;28;20182;-69
2021/01/15 01:43:34;;;;;;;17.27;4.30;;;28.60;79.20;;;;;;4991407;28;20806;-71
2021/01/15 01:46:06;;;;;;;15.73;3.80;;;28.60;79.30;;;;;;4981657;28;20183;-69
2021/01/15 01:48:35;;;;;;;18.37;4.30;;;28.90;79.20;;;;;;4985301;28;20205;-69
2021/01/15 01:51:04;;;;;;;17.20;4.23;;;28.80;78.30;;;;;;4980790;28;20182;-69
2021/01/15 01:53:32;;;;;;;15.13;3.97;;;28.40;80.10;;;;;;4990896;28;20795;-68
2021/01/15 01:56:04;;;;;;;19.90;3.80;;;28.40;79.70;;;;;;4996053;28;20279;-69
2021/01/15 01:58:35;;;;;;;20.03;4.43;;;28.40;79.80;;;;;;4996159;28;20216;-70
2021/01/15 02:01:06;;;;;;;21.20;5.07;;;28.30;79.70;;;;;;4981616;28;20233;-69
2021/01/15 02:03:34;;;;;;;19.33;4.60;;;28.40;79.90;;;;;;4987198;28;20182;-70
2021/01/15 02:06:03;;;;;;;13.73;3.87;;;28.80;78.60;;;;;;4990212;28;20174;-69
2021/01/15 02:08:32;;;;;;;21.17;4.27;;;28.70;78.70;;;;;;4984245;28;20182;-69
2021/01/15 02:11:14;;;;;;;16.37;4.23;;;28.90;79.00;;;;;;4984730;28;20248;-69
2021/01/15 02:13:44;;;;;;;23.27;4.33;;;28.80;78.90;;;;;;4983108;28;20181;-69
2021/01/15 02:16:22;;;;;;;19.27;5.03;;;28.50;78.50;;;;;;4984000;28;20194;-68
2021/01/15 02:19:09;;;;;;;22.23;4.27;;;28.50;78.60;;;;;;4978811;28;20794;-69
2021/01/15 02:21:51;;;;;;;16.70;4.30;;;28.50;79.10;;;;;;4994860;28;20202;-69
2021/01/15 02:24:51;;;;;;;16.90;4.27;;;28.40;79.60;;;;;;4990722;28;20240;-69
2021/01/15 02:27:54;;;;;;;17.07;4.40;;;28.40;79.40;;;;;;4976173;28;20183;-67
2021/01/15 02:30:40;;;;;;;20.37;4.57;;;28.20;80.40;;;;;;4983577;28;20184;-70
2021/01/15 02:33:19;;;;;;;20.00;4.40;;;28.00;80.60;;;;;;4991793;28;20189;-70
2021/01/15 02:36:05;;;;;;;20.93;4.20;;;28.30;81.10;;;;;;4995158;28;20209;-68
2021/01/15 02:38:44;;;;;;;19.43;5.10;;;28.80;79.20;;;;;;4993118;28;20248;-70
2021/01/15 02:41:29;;;;;;;19.23;5.20;;;28.70;78.70;;;;;;4993995;28;20240;-69
2021/01/15 02:44:12;;;;;;;23.77;5.27;;;28.20;80.40;;;;;;4992783;28;20192;-70
2021/01/15 02:47:00;;;;;;;21.50;4.60;;;28.30;80.30;;;;;;4984319;28;20214;-70
2021/01/15 02:49:29;;;;;;;19.43;5.67;;;28.50;80.20;;;;;;4992728;28;20186;-71
2021/01/15 02:51:58;;;;;;;20.17;5.00;;;28.50;80.60;;;;;;4984004;28;20206;-70
2021/01/15 02:54:26;;;;;;;16.50;4.57;;;28.50;80.10;;;;;;4984744;28;20186;-70
2021/01/15 02:56:53;;;;;;;20.17;5.20;;;28.60;80.10;;;;;;4982172;28;20607;-70
2021/01/15 02:59:21;;;;;;;20.87;4.70;;;29.20;78.80;;;;;;4988193;28;20268;-72
2021/01/15 03:02:04;;;;;;;15.77;5.67;;;29.60;77.40;;;;;;4980035;28;20217;-72
2021/01/15 03:04:44;;;;;;;17.40;5.17;;;29.50;76.90;;;;;;4990939;28;20569;-70
2021/01/15 03:07:14;;;;;;;25.07;5.93;;;29.10;79.30;;;;;;4990635;28;20649;-72
2021/01/15 03:09:46;;;;;;;20.40;5.33;;;29.50;77.70;;;;;;4989062;28;20640;-71
2021/01/15 03:12:16;;;;;;;20.63;4.50;;;29.30;77.10;;;;;;4982797;28;20648;-71
2021/01/15 03:14:47;;;;;;;22.90;5.13;;;29.40;77.50;;;;;;4978382;28;20217;-71
2021/01/15 03:17:16;;;;;;;19.30;5.03;;;29.60;76.90;;;;;;4987989;28;20232;-71
2021/01/15 03:19:44;;;;;;;18.50;4.93;;;29.50;77.30;;;;;;4993315;28;20680;-74
2021/01/15 03:22:17;;;;;;;17.87;5.27;;;29.30;78.30;;;;;;4988425;28;20756;-71
2021/01/15 03:24:59;;;;;;;18.97;5.00;;;29.00;78.00;;;;;;4989880;28;20186;-68
2021/01/15 03:27:49;;;;;;;19.07;4.83;;;28.80;78.30;;;;;;4981157;28;20727;-70
2021/01/15 03:30:23;;;;;;;16.30;4.90;;;28.80;78.70;;;;;;4987581;28;20191;-68
2021/01/15 03:32:56;;;;;;;20.43;5.27;;;29.00;78.40;;;;;;4982602;28;20233;-67
2021/01/15 03:35:25;;;;;;;18.67;5.30;;;28.90;78.30;;;;;;4987038;28;20221;-68
2021/01/15 03:37:58;;;;;;;18.87;5.00;;;29.20;78.60;;;;;;4989501;28;20308;-69
2021/01/15 03:40:27;;;;;;;23.70;5.60;;;28.90;78.00;;;;;;4978975;28;20189;-67
2021/01/15 03:42:55;;;;;;;15.03;4.87;;;28.50;79.90;;;;;;4986813;28;20174;-71
2021/01/15 03:45:23;;;;;;;14.87;4.83;;;28.10;80.40;;;;;;4986070;28;20190;-71
2021/01/15 03:47:50;;;;;;;16.97;5.03;;;28.10;81.50;;;;;;4986527;28;20214;-69
2021/01/15 03:50:18;;;;;;;21.27;5.43;;;28.10;81.40;;;;;;4990393;28;20178;-69
2021/01/15 03:52:47;;;;;;;15.43;5.27;;;27.80;82.00;;;;;;4988535;28;20182;-69
2021/01/15 03:55:15;;;;;;;20.30;5.03;;;27.70;82.30;;;;;;4982496;28;20312;-70
2021/01/15 03:57:43;;;;;;;24.40;5.73;;;27.80;82.50;;;;;;4992669;28;20516;-68
2021/01/15 04:00:11;;;;;;;19.13;5.53;;;27.90;81.80;;;;;;4985916;28;20708;-69
2021/01/15 04:02:38;;;;;;;24.97;5.87;;;27.80;81.80;;;;;;5001567;28;20294;-69
2021/01/15 04:05:10;;;;;;;19.37;5.63;;;27.70;81.60;;;;;;4994492;28;20186;-70
2021/01/15 04:07:37;;;;;;;16.40;5.27;;;27.50;82.90;;;;;;4993827;28;20658;-70
2021/01/15 04:10:07;;;;;;;11.07;4.50;;;27.40;82.90;;;;;;4986116;28;20222;-68
2021/01/15 04:12:34;;;;;;;23.37;6.97;;;27.30;83.20;;;;;;4982021;28;20185;-68
2021/01/15 04:15:02;;;;;;;17.40;6.27;;;27.10;83.30;;;;;;4982232;28;20197;-70
2021/01/15 04:17:29;;;;;;;13.40;5.37;;;27.00;84.60;;;;;;4981119;28;20551;-69
2021/01/15 04:19:57;;;;;;;17.07;6.13;;;26.90;84.30;;;;;;4990519;28;20217;-70
2021/01/15 04:22:24;;;;;;;16.67;6.20;;;27.10;84.30;;;;;;4987741;28;20182;-70
2021/01/15 04:24:51;;;;;;;17.17;5.70;;;27.20;83.90;;;;;;4987739;28;20645;-70
2021/01/15 04:27:19;;;;;;;20.57;6.23;;;27.30;83.60;;;;;;4978146;28;20186;-69
2021/01/15 04:29:46;;;;;;;19.27;6.03;;;27.50;83.70;;;;;;4982937;28;20187;-69
2021/01/15 04:32:14;;;;;;;14.47;5.40;;;28.20;81.90;;;;;;4979746;28;20190;-69
2021/01/15 04:34:41;;;;;;;12.37;4.67;;;28.70;79.40;;;;;;4986382;28;20201;-70
2021/01/15 04:37:08;;;;;;;16.53;6.23;;;28.30;80.30;;;;;;4993101;28;20193;-70
2021/01/15 04:39:36;;;;;;;15.50;5.10;;;28.30;80.60;;;;;;4993088;28;20264;-68
2021/01/15 04:42:03;;;;;;;11.77;5.10;;;28.90;78.90;;;;;;4992582;28;20190;-68
2021/01/15 04:44:31;;;;;;;22.80;6.03;;;29.50;76.90;;;;;;4983572;28;20537;-72
2021/01/15 04:47:01;;;;;;;15.37;5.40;;;29.70;76.10;;;;;;4987014;28;20270;-70
2021/01/15 04:49:30;;;;;;;14.30;5.50;;;30.20;75.30;;;;;;4985686;28;20186;-71
2021/01/15 04:52:02;;;;;;;14.50;5.80;;;29.80;75.40;;;;;;4991711;28;20221;-68
2021/01/15 04:54:40;;;;;;;13.13;5.23;;;29.90;74.80;;;;;;4991595;28;20186;-69
2021/01/15 04:57:10;;;;;;;16.83;6.20;;;30.00;74.40;;;;;;4990530;28;20259;-68
2021/01/15 04:59:44;;;;;;;13.93;5.00;;;29.90;74.70;;;;;;4986119;28;20218;-69
2021/01/15 05:02:13;;;;;;;12.18;5.65;;;29.50;75.40;;;;;;4988130;28;20537;-69
2021/01/15 05:04:41;;;;;;;18.77;7.05;;;29.50;75.80;;;;;;4988228;28;20652;-70
2021/01/15 05:07:10;;;;;;;12.83;5.63;;;29.80;74.60;;;;;;4980352;28;20185;-70
2021/01/15 05:09:48;;;;;;;21.40;5.68;;;30.00;74.80;;;;;;4988343;28;20193;-70
2021/01/15 05:12:18;;;;;;;12.50;5.00;;;30.10;74.80;;;;;;4984750;28;20587;-68
2021/01/15 05:14:49;;;;;;;12.57;4.60;;;30.30;73.50;;;;;;4988288;28;20212;-68
2021/01/15 05:17:17;;;;;;;12.65;5.32;;;30.40;73.50;;;;;;4986344;28;20679;-71
2021/01/15 05:19:45;;;;;;;16.65;6.07;;;30.40;73.50;;;;;;4988148;28;20268;-71
2021/01/15 05:22:13;;;;;;;18.73;4.97;;;30.10;74.70;;;;;;4989317;28;20180;-70
2021/01/15 05:24:40;;;;;;;15.35;5.03;;;30.40;74.60;;;;;;4983472;28;20201;-68
2021/01/15 05:30:17;;;;;;;11.00;5.05;;;30.00;75.50;;;;;;4984822;28;20193;-71
2021/01/15 05:32:45;;;;;;;17.98;7.00;;;30.10;75.50;;;;;;4990890;28;20185;-68
2021/01/15 05:35:13;;;;;;;13.80;6.47;;;30.60;74.30;;;;;;4987253;28;20284;-67
2021/01/15 05:37:42;;;;;;;17.85;5.55;;;30.00;75.40;;;;;;4985178;28;20182;-67
2021/01/15 05:40:10;;;;;;;14.25;5.45;;;29.90;75.50;;;;;;4989657;28;20273;-67
2021/01/15 05:42:52;;;;;;;21.73;5.78;;;29.50;76.10;;;;;;4988660;28;20209;-67
2021/01/15 05:45:20;;;;;;;15.00;5.55;;;29.60;77.10;;;;;;4988083;28;20182;-68
2021/01/15 05:47:48;;;;;;;13.50;5.50;;;29.60;76.70;;;;;;4983497;28;20531;-66
2021/01/15 05:50:17;;;;;;;19.27;6.57;;;29.70;76.10;;;;;;4990275;28;20174;-68
2021/01/15 05:52:58;;;;;;;12.95;6.72;;;29.90;76.00;;;;;;4992183;28;20329;-69
2021/01/15 05:55:26;;;;;;;13.10;5.55;;;30.20;75.20;;;;;;4992012;28;20797;-68
2021/01/15 05:57:54;;;;;;;16.50;6.75;;;30.30;75.40;;;;;;4982057;28;20206;-68
2021/01/15 06:00:30;;;;;;;15.32;6.25;;;30.40;74.60;;;;;;4995820;28;20198;-69
2021/01/15 06:02:58;;;;;;;16.58;6.78;;;30.40;74.80;;;;;;4979575;28;20539;-69
2021/01/15 06:05:26;;;;;;;18.95;6.63;;;30.40;75.30;;;;;;4995546;28;20189;-69
2021/01/15 06:07:59;;;;;;;18.58;6.20;;;30.50;75.50;;;;;;4982272;28;20245;-71
2021/01/15 06:10:28;;;;;;;19.58;7.93;;;30.50;75.50;;;;;;4989709;28;20538;-71
2021/01/15 06:12:56;;;;;;;24.13;8.45;;;30.60;76.30;;;;;;4985972;28;20194;-71
2021/01/15 06:15:23;;;;;;;24.13;8.63;;;29.70;77.80;;;;;;4994528;28;20242;-70
2021/01/15 06:17:54;;;;;;;17.52;6.63;;;29.50;78.90;;;;;;4989047;28;20186;-67
2021/01/15 06:20:22;;;;;;;18.17;6.17;;;29.90;78.20;;;;;;4992158;28;20225;-69
2021/01/15 06:22:54;;;;;;;19.63;6.77;;;29.70;77.90;;;;;;4995531;28;20244;-69
2021/01/15 06:25:32;;;;;;;21.73;7.05;;;29.70;78.80;;;;;;4994794;28;20597;-67
2021/01/15 06:28:02;;;;;;;19.10;6.57;;;29.80;78.40;;;;;;4979924;28;20174;-68
2021/01/15 06:30:31;;;;;;;18.33;6.80;;;30.00;77.60;;;;;;4977250;28;20199;-68
2021/01/15 06:33:15;;;;;;;21.03;7.53;;;29.70;78.00;;;;;;4994209;28;20182;-69
2021/01/15 06:35:45;;;;;;;20.33;7.20;;;29.60;79.00;;;;;;4994469;28;20196;-67
2021/01/15 06:38:14;;;;;;;17.47;7.03;;;29.50;79.70;;;;;;4982103;28;20285;-69
2021/01/15 06:40:48;;;;;;;16.63;7.70;;;29.40;78.40;;;;;;4990254;28;20277;-69
2021/01/15 06:43:33;;;;;;;13.60;8.50;;;29.20;79.10;;;;;;4995047;28;20185;-67
2021/01/15 06:46:03;;;;;;;17.77;8.48;;;29.40;79.60;;;;;;4993146;28;20182;-68
2021/01/15 06:48:38;;;;;;;19.02;8.55;;;30.00;78.20;;;;;;4995820;28;20190;-67
2021/01/15 06:51:06;;;;;;;22.17;7.87;;;29.60;78.60;;;;;;4995464;28;20174;-68
2021/01/15 06:53:38;;;;;;;21.00;9.85;;;29.30;79.70;;;;;;4994505;28;20280;-70
2021/01/15 06:56:07;;;;;;;29.63;10.37;;;29.00;80.00;;;;;;4993756;28;20229;-68
2021/01/15 06:58:42;;;;;;;21.27;10.33;;;28.50;81.60;;;;;;4994216;28;20581;-68
2021/01/15 07:01:38;;;;;;;20.07;9.47;;;28.60;81.40;;;;;;4994991;28;20190;-70
2021/01/15 07:04:28;;;;;;;20.73;10.57;;;28.60;81.30;;;;;;4990384;28;20178;-72
2021/01/15 07:07:10;;;;;;;21.03;10.23;;;28.90;80.70;;;;;;4994822;28;20182;-68
2021/01/15 07:09:40;;;;;;;18.37;10.83;;;29.00;80.40;;;;;;4992741;28;20178;-69
2021/01/15 07:12:18;;;;;;;24.23;10.60;;;29.20;79.40;;;;;;4994579;28;20183;-67
2021/01/15 07:14:58;;;;;;;17.63;10.87;;;28.80;80.10;;;;;;4983164;28;20170;-71
2021/01/15 07:17:45;;;;;;;16.63;10.70;;;29.00;80.30;;;;;;4986191;28;20597;-72
2021/01/15 07:20:19;;;;;;;19.17;10.67;;;29.00;80.20;;;;;;4984103;28;20197;-69
2021/01/15 07:23:00;;;;;;;23.90;10.40;;;28.80;80.80;;;;;;4993992;28;20247;-69
2021/01/15 07:25:27;;;;;;;18.20;10.73;;;28.40;82.10;;;;;;4983902;28;20213;-70
2021/01/15 07:27:55;;;;;;;21.67;11.10;;;28.00;83.20;;;;;;4994723;28;20186;-71
2021/01/15 07:30:29;;;;;;;19.67;10.97;;;27.50;85.30;;;;;;4993181;28;20190;-67
2021/01/15 07:32:59;;;;;;;23.57;13.17;;;26.90;87.10;;;;;;4980595;28;20212;-70
2021/01/15 07:35:29;;;;;;;22.10;11.33;;;26.80;88.50;;;;;;4988641;28;20182;-68
2021/01/15 07:38:10;;;;;;;23.30;11.40;;;26.60;89.20;;;;;;4997885;28;20210;-70
2021/01/15 07:40:39;;;;;;;21.43;10.93;;;26.50;90.20;;;;;;4990436;28;20217;-68
2021/01/15 07:43:26;;;;;;;23.30;10.57;;;26.50;90.30;;;;;;4992953;28;20181;-68
2021/01/15 07:45:54;;;;;;;24.20;11.40;;;26.50;90.30;;;;;;4972111;28;20205;-70
2021/01/15 07:48:21;;;;;;;25.57;12.00;;;26.50;90.60;;;;;;4980282;28;20220;-69
2021/01/15 07:50:50;;;;;;;26.57;11.43;;;26.50;90.80;;;;;;4989597;28;20268;-69
2021/01/15 07:53:21;;;;;;;24.30;12.50;;;26.40;91.00;;;;;;4994221;28;20182;-70
2021/01/15 07:55:52;;;;;;;24.30;11.23;;;26.30;91.30;;;;;;4984618;28;20681;-70
2021/01/15 07:58:21;;;;;;;22.70;11.17;;;26.30;91.30;;;;;;4983525;28;20221;-68
2021/01/15 08:00:49;;;;;;;22.27;11.17;;;26.30;91.50;;;;;;4977166;28;20672;-68
2021/01/15 08:03:17;;;;;;;23.73;11.87;;;26.10;91.80;;;;;;4990509;28;20175;-71
2021/01/15 08:05:46;;;;;;;26.13;13.00;;;26.10;92.00;;;;;;4989516;28;20644;-69
2021/01/15 08:08:19;;;;;;;17.53;11.53;;;26.20;92.00;;;;;;4993758;28;20557;-70
2021/01/15 08:10:51;;;;;;;32.70;12.63;;;26.10;92.30;;;;;;4978077;28;20199;-70
2021/01/15 08:13:31;;;;;;;25.73;11.80;;;26.10;92.30;;;;;;4991278;28;20236;-69
2021/01/15 08:15:58;;;;;;;31.13;12.57;;;26.00;92.50;;;;;;4992681;28;20186;-70
2021/01/15 08:18:26;;;;;;;22.93;12.37;;;26.00;92.70;;;;;;4992541;28;20220;-71
2021/01/15 08:20:56;;;;;;;35.07;12.20;;;26.10;92.80;;;;;;4992954;28;20197;-70
2021/01/15 08:23:26;;;;;;;19.47;10.57;;;25.90;92.90;;;;;;4993463;28;20182;-71
2021/01/15 08:25:56;;;;;;;26.27;12.17;;;25.90;93.10;;;;;;4989853;28;20174;-70
2021/01/15 08:28:23;;;;;;;30.03;12.27;;;25.70;93.50;;;;;;5003100;28;20229;-70
2021/01/15 08:31:20;;;;;;;27.17;11.30;;;25.70;93.60;;;;;;4981600;28;20248;-69
2021/01/15 08:33:48;;;;;;;26.07;11.57;;;25.70;93.90;;;;;;4987761;28;20190;-71
2021/01/15 08:36:16;;;;;;;25.37;10.37;;;25.60;94.20;;;;;;4987340;28;20186;-68
2021/01/15 08:38:43;;;;;;;23.57;11.47;;;25.60;94.10;;;;;;4983020;28;20305;-69
2021/01/15 08:41:15;;;;;;;31.27;11.47;;;25.50;94.10;;;;;;4988373;28;20777;-70
2021/01/15 08:43:42;;;;;;;28.13;12.20;;;25.70;94.20;;;;;;4991348;28;20248;-71
2021/01/15 08:46:19;;;;;;;25.03;10.90;;;25.70;94.10;;;;;;4992865;28;20359;-70
2021/01/15 08:48:47;;;;;;;29.70;11.67;;;25.70;94.00;;;;;;4991069;28;20184;-70
2021/01/15 08:51:21;;;;;;;27.00;11.13;;;25.60;94.10;;;;;;4992961;28;20653;-69
2021/01/15 08:54:09;;;;;;;21.37;11.77;;;25.60;94.40;;;;;;4981368;28;20183;-70
2021/01/15 08:56:44;;;;;;;32.37;11.83;;;25.50;94.50;;;;;;4990178;28;20233;-68
2021/01/15 08:59:25;;;;;;;22.80;10.93;;;25.40;94.80;;;;;;4983709;28;20267;-70
2021/01/15 09:01:54;;;;;;;24.83;10.87;;;25.20;95.10;;;;;;4984239;28;20231;-70
2021/01/15 09:04:33;;;;;;;18.60;10.30;;;25.20;95.30;;;;;;4992380;28;20186;-69
2021/01/15 09:07:10;;;;;;;26.47;12.00;;;25.10;95.50;;;;;;4983483;28;20182;-69
2021/01/15 09:09:39;;;;;;;25.30;10.67;;;25.10;96.00;;;;;;4980545;28;20170;-69
2021/01/15 09:12:10;;;;;;;32.97;17.80;;;25.00;96.00;;;;;;4990196;28;20186;-69
2021/01/15 09:14:39;;;;;;;32.73;16.43;;;25.00;96.20;;;;;;4997119;28;20308;-70
2021/01/15 09:17:10;;;;;;;27.20;14.47;;;24.90;96.30;;;;;;4989444;28;20266;-70
2021/01/15 09:19:39;;;;;;;29.47;12.40;;;24.90;96.50;;;;;;4982026;28;20225;-69
2021/01/15 09:22:17;;;;;;;29.30;13.50;;;24.90;96.50;;;;;;4982858;28;20652;-69
2021/01/15 09:24:44;;;;;;;35.40;12.80;;;24.90;96.70;;;;;;4991609;28;20186;-69
2021/01/15 09:27:12;;;;;;;32.03;12.70;;;24.90;96.70;;;;;;4992516;28;20651;-69
2021/01/15 09:29:40;;;;;;;31.40;12.10;;;24.80;96.70;;;;;;4992733;28;20196;-68
2021/01/15 09:32:07;;;;;;;31.37;13.10;;;24.80;97.00;;;;;;4991074;28;20581;-69
2021/01/15 09:34:35;;;;;;;25.40;11.80;;;24.80;97.00;;;;;;4993492;28;20182;-70
2021/01/15 09:37:03;;;;;;;29.47;12.53;;;24.80;97.00;;;;;;4992551;28;20189;-69
2021/01/15 09:39:30;;;;;;;24.13;11.17;;;24.70;97.10;;;;;;4993715;28;20225;-69
2021/01/15 09:41:59;;;;;;;24.90;12.30;;;24.70;97.20;;;;;;4987982;28;20195;-69
2021/01/15 09:44:28;;;;;;;25.93;12.30;;;24.60;97.30;;;;;;4986945;28;20217;-69
2021/01/15 09:47:01;;;;;;;30.23;12.30;;;24.60;97.60;;;;;;4995382;28;20644;-69
2021/01/15 09:49:31;;;;;;;27.07;12.57;;;24.60;97.80;;;;;;4993975;28;20281;-69
2021/01/15 09:51:58;;;;;;;27.47;13.33;;;24.50;98.00;;;;;;4994068;28;20185;-71
2021/01/15 09:54:26;;;;;;;32.17;12.60;;;24.50;98.00;;;;;;4996264;28;20210;-69
2021/01/15 09:56:53;;;;;;;27.33;12.30;;;24.50;97.80;;;;;;4995540;28;20265;-70
2021/01/15 09:59:20;;;;;;;32.60;12.40;;;24.40;98.00;;;;;;4996163;28;20308;-70
2021/01/15 10:01:48;;;;;;;43.20;24.70;;;24.50;98.10;;;;;;4994675;28;20266;-70
2021/01/15 10:04:16;;;;;;;32.17;15.83;;;24.40;98.00;;;;;;4995931;28;20656;-70
2021/01/15 10:06:45;;;;;;;32.43;14.57;;;24.40;98.10;;;;;;4993339;28;20192;-71
2021/01/15 10:09:14;;;;;;;29.80;12.80;;;24.30;98.30;;;;;;4996004;28;20536;-71
2021/01/15 10:11:44;;;;;;;38.87;19.80;;;24.30;98.30;;;;;;4994491;28;20182;-71
2021/01/15 10:14:17;;;;;;;36.87;13.80;;;24.30;98.40;;;;;;4981341;28;20691;-69
2021/01/15 10:16:47;;;;;;;33.53;14.53;;;24.30;98.40;;;;;;4981902;28;20174;-70
2021/01/15 10:19:15;;;;;;;31.90;12.63;;;24.20;98.50;;;;;;4995072;28;20214;-70
2021/01/15 10:21:43;;;;;;;35.73;13.20;;;24.20;98.50;;;;;;4994276;28;20241;-70
2021/01/15 10:24:12;;;;;;;31.03;13.33;;;24.20;98.60;;;;;;4988195;28;20544;-69
2021/01/15 10:26:40;;;;;;;27.77;13.43;;;24.20;98.70;;;;;;4993338;28;20182;-70
2021/01/15 10:29:10;;;;;;;43.63;15.40;;;24.20;98.60;;;;;;4991471;28;20179;-72
2021/01/15 10:31:43;;;;;;;40.90;14.40;;;24.20;98.60;;;;;;4991861;28;20213;-71
2021/01/15 10:34:11;;;;;;;31.50;14.37;;;24.20;98.60;;;;;;4982156;28;20178;-69
2021/01/15 10:36:43;;;;;;;31.87;13.63;;;24.20;98.70;;;;;;4993793;28;20691;-71
2021/01/15 10:39:11;;;;;;;35.77;14.10;;;24.10;98.70;;;;;;4992467;28;20307;-71
2021/01/15 10:41:41;;;;;;;36.13;14.83;;;24.10;98.90;;;;;;4987440;28;20585;-69
2021/01/15 10:44:10;;;;;;;33.53;16.43;;;24.00;99.00;;;;;;4993847;28;20190;-69
2021/01/15 10:46:40;;;;;;;32.17;16.33;;;24.00;98.90;;;;;;4994199;28;20182;-69
2021/01/15 10:49:08;;;;;;;38.47;14.50;;;24.00;99.00;;;;;;4993209;28;20799;-69
2021/01/15 10:51:46;;;;;;;32.30;13.63;;;23.90;99.20;;;;;;4995479;28;20232;-69
2021/01/15 10:54:13;;;;;;;36.05;16.27;;;23.90;99.00;;;;;;4989086;28;20422;-72
2021/01/15 10:56:45;;;;;;;36.17;14.70;;;24.00;99.10;;;;;;4990647;28;20352;-70
2021/01/15 10:59:13;;;;;;;33.83;14.87;;;23.90;99.00;;;;;;4988522;28;20624;-68
2021/01/15 11:01:41;;;;;;;29.27;13.77;;;23.90;99.10;;;;;;4995407;28;20193;-68
2021/01/15 11:04:10;;;;;;;38.63;14.33;;;23.90;99.20;;;;;;4993535;28;20189;-69
2021/01/15 11:06:57;;;;;;;30.90;14.20;;;23.90;99.10;;;;;;4988233;28;20667;-69
2021/01/15 11:09:26;;;;;;;28.00;12.77;;;23.90;99.20;;;;;;4989700;28;20277;-69
2021/01/15 11:11:56;;;;;;;38.00;14.40;;;23.80;99.10;;;;;;4993640;28;20221;-68
2021/01/15 11:14:23;;;;;;;30.83;14.10;;;23.80;99.30;;;;;;4995031;28;20213;-69
2021/01/15 11:16:51;;;;;;;32.13;14.30;;;23.70;99.40;;;;;;4993717;28;20189;-69
2021/01/15 11:19:18;;;;;;;35.33;15.30;;;23.70;99.60;;;;;;4994527;28;20596;-69
2021/01/15 11:21:47;;;;;;;39.13;15.47;;;23.70;99.60;;;;;;4990801;28;20645;-68
2021/01/15 11:24:14;;;;;;;27.60;13.27;;;23.70;99.40;;;;;;4984796;28;20196;-71
2021/01/15 11:26:41;;;;;;;37.37;15.73;;;23.70;99.30;;;;;;4989652;28;20265;-70
2021/01/15 11:29:10;;;;;;;38.67;15.13;;;23.70;99.40;;;;;;4994261;28;20209;-71
2021/01/15 11:31:39;;;;;;;33.30;15.50;;;23.70;99.20;;;;;;4994638;28;20218;-68
2021/01/15 11:34:06;;;;;;;29.20;14.13;;;23.70;99.10;;;;;;4991437;28;20189;-68
2021/01/15 11:36:34;;;;;;;29.33;14.53;;;23.80;99.00;;;;;;4986715;28;20236;-72
2021/01/15 11:39:10;;;;;;;30.63;14.47;;;23.80;98.90;;;;;;4993819;28;20222;-69
2021/01/15 11:41:38;;;;;;;37.90;15.60;;;23.80;98.90;;;;;;4987118;28;20182;-72
2021/01/15 11:44:11;;;;;;;34.03;15.03;;;23.80;98.80;;;;;;4990563;28;20181;-70
2021/01/15 11:46:39;;;;;;;29.53;14.30;;;23.80;98.80;;;;;;4992047;28;20269;-68
2021/01/15 11:49:06;;;;;;;24.10;14.30;;;23.80;98.80;;;;;;4991861;28;20190;-68
2021/01/15 11:51:33;;;;;;;28.77;14.17;;;23.70;98.80;;;;;;4994359;28;20189;-70
2021/01/15 11:54:01;;;;;;;30.20;14.60;;;23.70;98.50;;;;;;4993566;28;20196;-68
2021/01/15 11:56:28;;;;;;;27.97;14.67;;;23.70;98.60;;;;;;4991973;28;20284;-68
2021/01/15 11:58:56;;;;;;;33.83;13.47;;;23.70;98.10;;;;;;4994108;28;20301;-69
2021/01/15 12:01:24;;;;;;;24.10;11.77;;;23.70;96.50;;;;;;4981065;28;20178;-68
2021/01/15 12:03:51;;;;;;;18.60;10.40;;;23.80;95.50;;;;;;4992085;28;20186;-70
2021/01/15 12:06:18;;;;;;;17.40;9.77;;;23.90;93.10;;;;;;4985675;28;20598;-67
2021/01/15 12:08:46;;;;;;;19.30;9.00;;;24.00;92.30;;;;;;4986682;28;20182;-68
2021/01/15 12:11:13;;;;;;;22.87;9.00;;;24.00;91.50;;;;;;4990808;28;20593;-68
2021/01/15 12:13:40;;;;;;;16.60;7.40;;;24.00;90.30;;;;;;4988009;28;20268;-67
2021/01/15 12:16:10;;;;;;;26.83;6.43;;;24.00;85.70;;;;;;4994542;28;20613;-67
2021/01/15 12:18:37;;;;;;;8.87;4.53;;;24.10;80.70;;;;;;4991747;28;20256;-68
2021/01/15 12:21:05;;;;;;;10.80;4.33;;;24.10;76.20;;;;;;4984424;28;20281;-68
2021/01/15 12:23:32;;;;;;;9.37;4.03;;;24.10;70.40;;;;;;4988628;28;20280;-67
2021/01/15 12:26:02;;;;;;;12.80;4.20;;;24.10;67.90;;;;;;4993280;28;20649;-68
2021/01/15 12:28:29;;;;;;;18.90;4.10;;;24.10;66.90;;;;;;4979697;28;20197;-67
2021/01/15 12:30:56;;;;;;;11.80;4.13;;;24.00;67.60;;;;;;4991843;28;20181;-68
2021/01/15 12:33:24;;;;;;;8.33;2.93;;;24.00;68.30;;;;;;4990298;28;20182;-69
2021/01/15 12:35:51;;;;;;;6.50;2.20;;;24.00;62.50;;;;;;4981007;28;20190;-69
2021/01/15 12:38:23;;;;;;;8.63;1.80;;;24.00;59.10;;;;;;4986630;28;20213;-68
2021/01/15 12:40:54;;;;;;;10.17;1.50;;;24.10;52.80;;;;;;4992255;28;20652;-72
2021/01/15 12:43:21;;;;;;;15.20;1.10;;;24.20;47.20;;;;;;4987541;28;20197;-71
2021/01/15 12:45:50;;;;;;;11.63;1.30;;;24.20;46.40;;;;;;4991428;28;20185;-70
2021/01/15 12:48:18;;;;;;;4.77;1.00;;;24.20;44.40;;;;;;4992836;28;20663;-70
2021/01/15 12:50:46;;;;;;;7.57;0.83;;;24.20;43.10;;;;;;4991540;28;20173;-70
2021/01/15 12:53:14;;;;;;;5.43;1.17;;;24.20;43.30;;;;;;4988339;28;20186;-70
2021/01/15 12:55:42;;;;;;;8.80;1.63;;;24.10;43.30;;;;;;4991691;28;20226;-70